sensor_id;sensor_type;location;lat;lon;timestamp;P1;durP1;ratioP1;P2;durP2;ratioP2
1999;SDS011;1001;48.87406500;9.59633600;2022-11-21T00:02:09;3.20;;;0.87;;
1999;SDS011;1001;48.87406500;9.59633600;2022-11-21T00:04:37;0.67;;;0.50;;
1999;SDS011;1001;48.87406500;9.59633600;2022-11-21T00:07:04;1.97;;;0.80;;
1999;SDS011;1001;48.87406500;9.59633600;2022-11-21T00:09:31;1.00;;;0.57;;
1999;SDS011;1001;48.87406500;9.59633600;2022-11-21T00:12:05;0.70;;;0.50;;
1999;SDS011;1001;48.87406500;9.59633600;2022-11-21T00:14:33;0.87;;;0.50;;
1999;SDS011;1001;48.87406500;9.59633600;2022-11-21T00:17:00;1.50;;;0.80;;
1999;SDS011;1001;48.87406500;9.59633600;2022-11-21T00:19:29;1.17;;;0.60;;
1999;SDS011;1001;48.87406500;9.59633600;2022-11-21T00:21:56;1.33;;;0.90;;
1999;SDS011;1001;48.87406500;9.59633600;2022-11-21T00:24:22;1.23;;;0.63;;
1999;SDS011;1001;48.87406500;9.59633600;2022-11-21T00:26:49;1.33;;;0.77;;
1999;SDS011;1001;48.87406500;9.59633600;2022-11-21T00:29:16;2.70;;;1.00;;
1999;SDS011;1001;48.87406500;9.59633600;2022-11-21T00:31:44;1.47;;;0.70;;
1999;SDS011;1001;48.87406500;9.59633600;2022-11-21T00:34:15;1.17;;;0.80;;
1999;SDS011;1001;48.87406500;9.59633600;2022-11-21T00:36:42;1.70;;;0.70;;
1999;SDS011;1001;48.87406500;9.59633600;2022-11-21T00:39:08;0.90;;;0.60;;
1999;SDS011;1001;48.87406500;9.59633600;2022-11-21T00:41:35;1.27;;;0.53;;
1999;SDS011;1001;48.87406500;9.59633600;2022-11-21T00:44:02;1.87;;;0.60;;
1999;SDS011;1001;48.87406500;9.59633600;2022-11-21T00:46:29;3.47;;;0.90;;
1999;SDS011;1001;48.87406500;9.59633600;2022-11-21T00:48:57;1.30;;;0.60;;
1999;SDS011;1001;48.87406500;9.59633600;2022-11-21T00:51:30;0.80;;;0.50;;
1999;SDS011;1001;48.87406500;9.59633600;2022-11-21T00:53:58;1.67;;;0.53;;
1999;SDS011;1001;48.87406500;9.59633600;2022-11-21T00:56:32;0.90;;;0.53;;
1999;SDS011;1001;48.87406500;9.59633600;2022-11-21T00:59:10;1.30;;;0.80;;
1999;SDS011;1001;48.87406500;9.59633600;2022-11-21T01:02:18;1.13;;;1.07;;
1999;SDS011;1001;48.87406500;9.59633600;2022-11-21T01:08:44;1.17;;;0.90;;
1999;SDS011;1001;48.87406500;9.59633600;2022-11-21T01:11:51;0.90;;;0.60;;
1999;SDS011;1001;48.87406500;9.59633600;2022-11-21T01:14:27;0.70;;;0.30;;
1999;SDS011;1001;48.87406500;9.59633600;2022-11-21T01:17:06;1.30;;;0.70;;
1999;SDS011;1001;48.87406500;9.59633600;2022-11-21T01:19:32;1.00;;;0.43;;
1999;SDS011;1001;48.87406500;9.59633600;2022-11-21T01:22:05;2.93;;;1.00;;
1999;SDS011;1001;48.87406500;9.59633600;2022-11-21T01:24:56;0.80;;;0.40;;
1999;SDS011;1001;48.87406500;9.59633600;2022-11-21T01:27:30;0.70;;;0.43;;
1999;SDS011;1001;48.87406500;9.59633600;2022-11-21T01:30:06;1.50;;;0.60;;
1999;SDS011;1001;48.87406500;9.59633600;2022-11-21T01:33:11;1.10;;;0.60;;
1999;SDS011;1001;48.87406500;9.59633600;2022-11-21T01:36:04;0.80;;;0.60;;
1999;SDS011;1001;48.87406500;9.59633600;2022-11-21T01:38:42;1.40;;;0.70;;
1999;SDS011;1001;48.87406500;9.59633600;2022-11-21T01:41:17;0.80;;;0.50;;
1999;SDS011;1001;48.87406500;9.59633600;2022-11-21T01:43:54;1.60;;;1.20;;
1999;SDS011;1001;48.87406500;9.59633600;2022-11-21T01:46:29;1.17;;;0.60;;
1999;SDS011;1001;48.87406500;9.59633600;2022-11-21T01:49:02;1.43;;;0.93;;
1999;SDS011;1001;48.87406500;9.59633600;2022-11-21T01:51:42;2.30;;;0.80;;
1999;SDS011;1001;48.87406500;9.59633600;2022-11-21T02:02:12;1.27;;;1.10;;
1999;SDS011;1001;48.87406500;9.59633600;2022-11-21T02:50:14;3.10;;;1.00;;
1999;SDS011;1001;48.87406500;9.59633600;2022-11-21T02:53:26;4.10;;;1.30;;
1999;SDS011;1001;48.87406500;9.59633600;2022-11-21T02:56:28;6.20;;;1.60;;
1999;SDS011;1001;48.87406500;9.59633600;2022-11-21T03:04:32;2.47;;;1.17;;
1999;SDS011;1001;48.87406500;9.59633600;2022-11-21T03:06:55;3.77;;;1.10;;
1999;SDS011;1001;48.87406500;9.59633600;2022-11-21T03:16:09;1.80;;;1.00;;
1999;SDS011;1001;48.87406500;9.59633600;2022-11-21T03:22:33;1.23;;;0.77;;
1999;SDS011;1001;48.87406500;9.59633600;2022-11-21T03:25:24;0.93;;;0.70;;
1999;SDS011;1001;48.87406500;9.59633600;2022-11-21T03:28:00;2.83;;;1.27;;
1999;SDS011;1001;48.87406500;9.59633600;2022-11-21T03:30:56;1.00;;;0.70;;
1999;SDS011;1001;48.87406500;9.59633600;2022-11-21T03:37:06;0.67;;;0.57;;
1999;SDS011;1001;48.87406500;9.59633600;2022-11-21T03:40:12;1.40;;;0.80;;
1999;SDS011;1001;48.87406500;9.59633600;2022-11-21T03:43:43;2.20;;;0.90;;
1999;SDS011;1001;48.87406500;9.59633600;2022-11-21T03:46:23;1.10;;;0.77;;
1999;SDS011;1001;48.87406500;9.59633600;2022-11-21T03:48:53;1.13;;;1.03;;
1999;SDS011;1001;48.87406500;9.59633600;2022-11-21T03:51:49;1.10;;;1.00;;
1999;SDS011;1001;48.87406500;9.59633600;2022-11-21T03:54:46;1.10;;;0.93;;
1999;SDS011;1001;48.87406500;9.59633600;2022-11-21T03:57:59;4.97;;;1.10;;
1999;SDS011;1001;48.87406500;9.59633600;2022-11-21T04:00:31;1.50;;;1.10;;
1999;SDS011;1001;48.87406500;9.59633600;2022-11-21T04:03:23;2.27;;;0.90;;
1999;SDS011;1001;48.87406500;9.59633600;2022-11-21T04:06:05;1.87;;;0.73;;
1999;SDS011;1001;48.87406500;9.59633600;2022-11-21T04:09:12;2.87;;;0.90;;
1999;SDS011;1001;48.87406500;9.59633600;2022-11-21T04:12:10;4.33;;;1.27;;
1999;SDS011;1001;48.87406500;9.59633600;2022-11-21T04:14:41;1.90;;;0.73;;
1999;SDS011;1001;48.87406500;9.59633600;2022-11-21T04:17:09;1.83;;;0.80;;
1999;SDS011;1001;48.87406500;9.59633600;2022-11-21T04:19:54;1.40;;;0.90;;
1999;SDS011;1001;48.87406500;9.59633600;2022-11-21T04:22:30;1.43;;;0.70;;
1999;SDS011;1001;48.87406500;9.59633600;2022-11-21T04:25:01;1.30;;;0.80;;
1999;SDS011;1001;48.87406500;9.59633600;2022-11-21T04:28:01;1.13;;;0.53;;
1999;SDS011;1001;48.87406500;9.59633600;2022-11-21T04:40:38;1.57;;;0.90;;
1999;SDS011;1001;48.87406500;9.59633600;2022-11-21T04:43:30;1.67;;;0.97;;
1999;SDS011;1001;48.87406500;9.59633600;2022-11-21T04:49:09;1.03;;;0.90;;
1999;SDS011;1001;48.87406500;9.59633600;2022-11-21T04:51:54;1.80;;;0.90;;
1999;SDS011;1001;48.87406500;9.59633600;2022-11-21T06:05:22;3.10;;;1.70;;
1999;SDS011;1001;48.87406500;9.59633600;2022-11-21T06:11:17;4.03;;;2.00;;
1999;SDS011;1001;48.87406500;9.59633600;2022-11-21T06:14:22;3.70;;;2.10;;
1999;SDS011;1001;48.87406500;9.59633600;2022-11-21T06:17:20;3.03;;;2.63;;
1999;SDS011;1001;48.87406500;9.59633600;2022-11-21T06:20:29;4.77;;;2.30;;
1999;SDS011;1001;48.87406500;9.59633600;2022-11-21T06:26:43;2.50;;;2.23;;
1999;SDS011;1001;48.87406500;9.59633600;2022-11-21T06:30:00;2.90;;;2.10;;
1999;SDS011;1001;48.87406500;9.59633600;2022-11-21T06:35:55;6.20;;;2.10;;
1999;SDS011;1001;48.87406500;9.59633600;2022-11-21T06:38:49;4.03;;;2.00;;
1999;SDS011;1001;48.87406500;9.59633600;2022-11-21T06:41:33;2.83;;;2.40;;
1999;SDS011;1001;48.87406500;9.59633600;2022-11-21T06:44:22;16.40;;;2.30;;
1999;SDS011;1001;48.87406500;9.59633600;2022-11-21T06:46:54;4.37;;;2.30;;
1999;SDS011;1001;48.87406500;9.59633600;2022-11-21T06:49:31;2.97;;;2.30;;
1999;SDS011;1001;48.87406500;9.59633600;2022-11-21T06:52:21;5.20;;;2.20;;
1999;SDS011;1001;48.87406500;9.59633600;2022-11-21T06:55:13;3.70;;;2.37;;
1999;SDS011;1001;48.87406500;9.59633600;2022-11-21T06:58:01;7.73;;;2.77;;
1999;SDS011;1001;48.87406500;9.59633600;2022-11-21T07:01:12;2.40;;;1.77;;
1999;SDS011;1001;48.87406500;9.59633600;2022-11-21T07:03:50;3.03;;;2.13;;
1999;SDS011;1001;48.87406500;9.59633600;2022-11-21T07:06:27;5.60;;;2.50;;
1999;SDS011;1001;48.87406500;9.59633600;2022-11-21T07:09:01;11.90;;;3.27;;
1999;SDS011;1001;48.87406500;9.59633600;2022-11-21T07:11:56;2.97;;;2.27;;
1999;SDS011;1001;48.87406500;9.59633600;2022-11-21T07:17:47;2.27;;;1.60;;
1999;SDS011;1001;48.87406500;9.59633600;2022-11-21T07:20:23;3.43;;;2.10;;
1999;SDS011;1001;48.87406500;9.59633600;2022-11-21T07:22:54;2.37;;;1.90;;
1999;SDS011;1001;48.87406500;9.59633600;2022-11-21T07:25:25;6.10;;;2.47;;
1999;SDS011;1001;48.87406500;9.59633600;2022-11-21T07:27:59;6.60;;;2.40;;
1999;SDS011;1001;48.87406500;9.59633600;2022-11-21T07:30:38;6.13;;;2.33;;
1999;SDS011;1001;48.87406500;9.59633600;2022-11-21T07:33:10;7.60;;;2.57;;
1999;SDS011;1001;48.87406500;9.59633600;2022-11-21T07:35:41;4.73;;;2.27;;
1999;SDS011;1001;48.87406500;9.59633600;2022-11-21T07:38:11;3.90;;;2.63;;
1999;SDS011;1001;48.87406500;9.59633600;2022-11-21T07:40:42;4.93;;;2.70;;
1999;SDS011;1001;48.87406500;9.59633600;2022-11-21T07:43:10;3.63;;;1.80;;
1999;SDS011;1001;48.87406500;9.59633600;2022-11-21T07:45:38;3.60;;;2.13;;
1999;SDS011;1001;48.87406500;9.59633600;2022-11-21T07:48:05;3.60;;;1.90;;
1999;SDS011;1001;48.87406500;9.59633600;2022-11-21T07:50:37;3.83;;;2.10;;
1999;SDS011;1001;48.87406500;9.59633600;2022-11-21T07:53:05;2.53;;;2.20;;
1999;SDS011;1001;48.87406500;9.59633600;2022-11-21T07:55:34;7.80;;;2.00;;
1999;SDS011;1001;48.87406500;9.59633600;2022-11-21T07:58:01;2.33;;;1.90;;
1999;SDS011;1001;48.87406500;9.59633600;2022-11-21T08:00:30;4.00;;;1.87;;
1999;SDS011;1001;48.87406500;9.59633600;2022-11-21T08:02:59;6.43;;;1.97;;
1999;SDS011;1001;48.87406500;9.59633600;2022-11-21T08:05:29;2.50;;;1.53;;
1999;SDS011;1001;48.87406500;9.59633600;2022-11-21T08:07:56;1.50;;;1.30;;
1999;SDS011;1001;48.87406500;9.59633600;2022-11-21T08:10:23;4.33;;;2.00;;
1999;SDS011;1001;48.87406500;9.59633600;2022-11-21T08:12:51;2.80;;;1.60;;
1999;SDS011;1001;48.87406500;9.59633600;2022-11-21T08:15:18;2.53;;;1.33;;
1999;SDS011;1001;48.87406500;9.59633600;2022-11-21T08:17:47;3.67;;;1.80;;
1999;SDS011;1001;48.87406500;9.59633600;2022-11-21T08:20:15;1.80;;;1.20;;
1999;SDS011;1001;48.87406500;9.59633600;2022-11-21T08:22:42;2.70;;;1.40;;
1999;SDS011;1001;48.87406500;9.59633600;2022-11-21T08:25:09;3.83;;;1.47;;
1999;SDS011;1001;48.87406500;9.59633600;2022-11-21T08:27:36;1.77;;;1.23;;
1999;SDS011;1001;48.87406500;9.59633600;2022-11-21T08:30:05;4.33;;;1.40;;
1999;SDS011;1001;48.87406500;9.59633600;2022-11-21T08:32:33;5.40;;;1.03;;
1999;SDS011;1001;48.87406500;9.59633600;2022-11-21T08:35:00;2.63;;;1.70;;
1999;SDS011;1001;48.87406500;9.59633600;2022-11-21T08:37:28;2.80;;;1.23;;
1999;SDS011;1001;48.87406500;9.59633600;2022-11-21T08:39:55;2.13;;;1.57;;
1999;SDS011;1001;48.87406500;9.59633600;2022-11-21T08:42:24;1.50;;;1.40;;
1999;SDS011;1001;48.87406500;9.59633600;2022-11-21T08:44:51;2.50;;;1.70;;
1999;SDS011;1001;48.87406500;9.59633600;2022-11-21T08:47:20;3.77;;;1.30;;
1999;SDS011;1001;48.87406500;9.59633600;2022-11-21T08:49:47;3.47;;;1.13;;
1999;SDS011;1001;48.87406500;9.59633600;2022-11-21T08:52:14;1.80;;;1.30;;
1999;SDS011;1001;48.87406500;9.59633600;2022-11-21T08:54:43;2.00;;;1.57;;
1999;SDS011;1001;48.87406500;9.59633600;2022-11-21T08:57:10;6.63;;;2.10;;
1999;SDS011;1001;48.87406500;9.59633600;2022-11-21T08:59:41;8.53;;;1.80;;
1999;SDS011;1001;48.87406500;9.59633600;2022-11-21T09:02:09;3.43;;;1.30;;
1999;SDS011;1001;48.87406500;9.59633600;2022-11-21T09:04:38;1.70;;;1.33;;
1999;SDS011;1001;48.87406500;9.59633600;2022-11-21T09:07:05;2.23;;;1.40;;
1999;SDS011;1001;48.87406500;9.59633600;2022-11-21T09:09:32;3.10;;;1.70;;
1999;SDS011;1001;48.87406500;9.59633600;2022-11-21T09:12:01;2.73;;;1.37;;
1999;SDS011;1001;48.87406500;9.59633600;2022-11-21T09:14:28;5.27;;;1.47;;
1999;SDS011;1001;48.87406500;9.59633600;2022-11-21T09:17:12;2.60;;;1.23;;
1999;SDS011;1001;48.87406500;9.59633600;2022-11-21T09:19:57;2.73;;;1.50;;
1999;SDS011;1001;48.87406500;9.59633600;2022-11-21T09:22:25;3.13;;;1.37;;
1999;SDS011;1001;48.87406500;9.59633600;2022-11-21T09:24:52;3.53;;;1.40;;
1999;SDS011;1001;48.87406500;9.59633600;2022-11-21T09:27:21;1.23;;;0.97;;
1999;SDS011;1001;48.87406500;9.59633600;2022-11-21T09:29:50;4.33;;;1.40;;
1999;SDS011;1001;48.87406500;9.59633600;2022-11-21T09:32:17;1.37;;;1.10;;
1999;SDS011;1001;48.87406500;9.59633600;2022-11-21T09:34:43;2.70;;;1.30;;
1999;SDS011;1001;48.87406500;9.59633600;2022-11-21T09:37:12;4.20;;;1.80;;
1999;SDS011;1001;48.87406500;9.59633600;2022-11-21T09:39:39;4.30;;;1.40;;
1999;SDS011;1001;48.87406500;9.59633600;2022-11-21T09:42:13;4.30;;;1.90;;
1999;SDS011;1001;48.87406500;9.59633600;2022-11-21T09:45:07;4.13;;;1.83;;
1999;SDS011;1001;48.87406500;9.59633600;2022-11-21T09:47:39;2.23;;;1.43;;
1999;SDS011;1001;48.87406500;9.59633600;2022-11-21T09:50:16;3.00;;;1.20;;
1999;SDS011;1001;48.87406500;9.59633600;2022-11-21T09:52:55;1.97;;;1.17;;
1999;SDS011;1001;48.87406500;9.59633600;2022-11-21T09:55:27;4.40;;;2.53;;
1999;SDS011;1001;48.87406500;9.59633600;2022-11-21T09:57:58;4.50;;;2.60;;
1999;SDS011;1001;48.87406500;9.59633600;2022-11-21T10:00:27;3.43;;;1.60;;
1999;SDS011;1001;48.87406500;9.59633600;2022-11-21T10:02:58;6.73;;;1.90;;
1999;SDS011;1001;48.87406500;9.59633600;2022-11-21T10:05:28;5.70;;;1.83;;
1999;SDS011;1001;48.87406500;9.59633600;2022-11-21T10:08:04;12.03;;;2.53;;
1999;SDS011;1001;48.87406500;9.59633600;2022-11-21T10:10:43;4.10;;;1.50;;
1999;SDS011;1001;48.87406500;9.59633600;2022-11-21T10:13:21;3.27;;;1.70;;
1999;SDS011;1001;48.87406500;9.59633600;2022-11-21T10:16:05;3.13;;;2.20;;
1999;SDS011;1001;48.87406500;9.59633600;2022-11-21T10:18:52;6.00;;;1.93;;
1999;SDS011;1001;48.87406500;9.59633600;2022-11-21T10:21:37;7.40;;;3.30;;
1999;SDS011;1001;48.87406500;9.59633600;2022-11-21T10:24:18;5.73;;;1.73;;
1999;SDS011;1001;48.87406500;9.59633600;2022-11-21T10:26:52;3.50;;;1.40;;
1999;SDS011;1001;48.87406500;9.59633600;2022-11-21T10:29:25;4.50;;;1.53;;
1999;SDS011;1001;48.87406500;9.59633600;2022-11-21T10:31:57;4.43;;;1.00;;
1999;SDS011;1001;48.87406500;9.59633600;2022-11-21T10:34:28;4.07;;;2.00;;
1999;SDS011;1001;48.87406500;9.59633600;2022-11-21T10:37:00;4.63;;;1.57;;
1999;SDS011;1001;48.87406500;9.59633600;2022-11-21T10:39:37;6.73;;;1.10;;
1999;SDS011;1001;48.87406500;9.59633600;2022-11-21T10:42:11;3.63;;;1.37;;
1999;SDS011;1001;48.87406500;9.59633600;2022-11-21T10:44:50;2.83;;;1.10;;
1999;SDS011;1001;48.87406500;9.59633600;2022-11-21T10:47:34;4.67;;;1.63;;
1999;SDS011;1001;48.87406500;9.59633600;2022-11-21T10:50:04;2.90;;;0.87;;
1999;SDS011;1001;48.87406500;9.59633600;2022-11-21T10:52:42;3.60;;;1.40;;
1999;SDS011;1001;48.87406500;9.59633600;2022-11-21T10:55:13;2.40;;;1.20;;
1999;SDS011;1001;48.87406500;9.59633600;2022-11-21T10:57:44;3.90;;;1.50;;
1999;SDS011;1001;48.87406500;9.59633600;2022-11-21T11:00:18;4.07;;;1.40;;
1999;SDS011;1001;48.87406500;9.59633600;2022-11-21T11:05:42;7.53;;;1.73;;
1999;SDS011;1001;48.87406500;9.59633600;2022-11-21T11:08:21;4.07;;;1.47;;
1999;SDS011;1001;48.87406500;9.59633600;2022-11-21T11:11:00;3.57;;;1.30;;
1999;SDS011;1001;48.87406500;9.59633600;2022-11-21T11:13:28;7.33;;;1.67;;
1999;SDS011;1001;48.87406500;9.59633600;2022-11-21T11:16:05;2.30;;;1.53;;
1999;SDS011;1001;48.87406500;9.59633600;2022-11-21T11:18:44;2.53;;;1.10;;
1999;SDS011;1001;48.87406500;9.59633600;2022-11-21T11:21:13;3.23;;;1.60;;
1999;SDS011;1001;48.87406500;9.59633600;2022-11-21T11:23:42;2.37;;;1.50;;
1999;SDS011;1001;48.87406500;9.59633600;2022-11-21T11:29:06;5.93;;;1.53;;
1999;SDS011;1001;48.87406500;9.59633600;2022-11-21T11:31:42;6.37;;;1.87;;
1999;SDS011;1001;48.87406500;9.59633600;2022-11-21T11:34:15;3.93;;;2.73;;
1999;SDS011;1001;48.87406500;9.59633600;2022-11-21T11:36:53;4.53;;;1.20;;
1999;SDS011;1001;48.87406500;9.59633600;2022-11-21T11:39:25;7.07;;;1.40;;
1999;SDS011;1001;48.87406500;9.59633600;2022-11-21T11:45:23;7.73;;;1.80;;
1999;SDS011;1001;48.87406500;9.59633600;2022-11-21T11:48:14;7.50;;;1.57;;
1999;SDS011;1001;48.87406500;9.59633600;2022-11-21T11:50:45;1.77;;;1.00;;
1999;SDS011;1001;48.87406500;9.59633600;2022-11-21T11:53:14;2.33;;;1.10;;
1999;SDS011;1001;48.87406500;9.59633600;2022-11-21T11:55:44;6.70;;;1.40;;
1999;SDS011;1001;48.87406500;9.59633600;2022-11-21T11:58:18;3.87;;;0.80;;
1999;SDS011;1001;48.87406500;9.59633600;2022-11-21T12:07:54;2.03;;;1.10;;
1999;SDS011;1001;48.87406500;9.59633600;2022-11-21T12:10:46;6.20;;;1.50;;
1999;SDS011;1001;48.87406500;9.59633600;2022-11-21T12:13:39;3.27;;;1.27;;
1999;SDS011;1001;48.87406500;9.59633600;2022-11-21T12:16:09;2.43;;;1.60;;
1999;SDS011;1001;48.87406500;9.59633600;2022-11-21T12:19:04;3.57;;;1.47;;
1999;SDS011;1001;48.87406500;9.59633600;2022-11-21T12:21:37;2.80;;;1.23;;
1999;SDS011;1001;48.87406500;9.59633600;2022-11-21T12:24:07;4.13;;;1.83;;
1999;SDS011;1001;48.87406500;9.59633600;2022-11-21T12:26:39;2.73;;;1.93;;
1999;SDS011;1001;48.87406500;9.59633600;2022-11-21T12:29:24;4.33;;;1.90;;
1999;SDS011;1001;48.87406500;9.59633600;2022-11-21T12:32:17;1.80;;;1.50;;
1999;SDS011;1001;48.87406500;9.59633600;2022-11-21T12:35:03;1.50;;;1.20;;
1999;SDS011;1001;48.87406500;9.59633600;2022-11-21T12:37:46;3.00;;;1.30;;
1999;SDS011;1001;48.87406500;9.59633600;2022-11-21T12:40:24;2.27;;;1.30;;
1999;SDS011;1001;48.87406500;9.59633600;2022-11-21T12:43:07;3.63;;;1.17;;
1999;SDS011;1001;48.87406500;9.59633600;2022-11-21T12:46:01;2.23;;;1.10;;
1999;SDS011;1001;48.87406500;9.59633600;2022-11-21T12:48:39;2.77;;;1.30;;
1999;SDS011;1001;48.87406500;9.59633600;2022-11-21T12:51:49;2.90;;;1.50;;
1999;SDS011;1001;48.87406500;9.59633600;2022-11-21T12:54:57;2.70;;;1.30;;
1999;SDS011;1001;48.87406500;9.59633600;2022-11-21T12:57:57;1.67;;;1.10;;
1999;SDS011;1001;48.87406500;9.59633600;2022-11-21T13:00:35;2.23;;;1.00;;
1999;SDS011;1001;48.87406500;9.59633600;2022-11-21T13:03:19;3.53;;;1.17;;
1999;SDS011;1001;48.87406500;9.59633600;2022-11-21T13:05:59;2.73;;;1.00;;
1999;SDS011;1001;48.87406500;9.59633600;2022-11-21T13:08:30;3.20;;;0.90;;
1999;SDS011;1001;48.87406500;9.59633600;2022-11-21T13:11:08;3.80;;;0.90;;
1999;SDS011;1001;48.87406500;9.59633600;2022-11-21T13:14:03;3.00;;;1.00;;
1999;SDS011;1001;48.87406500;9.59633600;2022-11-21T13:16:39;14.03;;;1.60;;
1999;SDS011;1001;48.87406500;9.59633600;2022-11-21T13:19:15;2.10;;;0.90;;
1999;SDS011;1001;48.87406500;9.59633600;2022-11-21T13:21:57;2.30;;;1.20;;
1999;SDS011;1001;48.87406500;9.59633600;2022-11-21T13:27:30;3.13;;;1.37;;
1999;SDS011;1001;48.87406500;9.59633600;2022-11-21T13:30:22;2.83;;;1.17;;
1999;SDS011;1001;48.87406500;9.59633600;2022-11-21T13:32:52;3.53;;;1.10;;
1999;SDS011;1001;48.87406500;9.59633600;2022-11-21T13:44:45;2.77;;;1.07;;
1999;SDS011;1001;48.87406500;9.59633600;2022-11-21T13:50:15;2.73;;;1.10;;
1999;SDS011;1001;48.87406500;9.59633600;2022-11-21T13:52:53;3.30;;;1.30;;
1999;SDS011;1001;48.87406500;9.59633600;2022-11-21T13:55:33;1.90;;;1.03;;
1999;SDS011;1001;48.87406500;9.59633600;2022-11-21T13:58:13;2.73;;;1.20;;
1999;SDS011;1001;48.87406500;9.59633600;2022-11-21T14:01:05;2.30;;;1.13;;
1999;SDS011;1001;48.87406500;9.59633600;2022-11-21T14:06:44;1.60;;;1.23;;
1999;SDS011;1001;48.87406500;9.59633600;2022-11-21T14:09:18;3.03;;;0.80;;
1999;SDS011;1001;48.87406500;9.59633600;2022-11-21T14:11:52;2.63;;;1.27;;
1999;SDS011;1001;48.87406500;9.59633600;2022-11-21T14:14:22;3.97;;;1.40;;
1999;SDS011;1001;48.87406500;9.59633600;2022-11-21T14:16:52;2.50;;;0.93;;
1999;SDS011;1001;48.87406500;9.59633600;2022-11-21T14:19:29;1.37;;;1.10;;
1999;SDS011;1001;48.87406500;9.59633600;2022-11-21T14:22:03;1.13;;;0.90;;
1999;SDS011;1001;48.87406500;9.59633600;2022-11-21T14:24:47;2.83;;;1.17;;
1999;SDS011;1001;48.87406500;9.59633600;2022-11-21T14:27:20;3.60;;;0.90;;
1999;SDS011;1001;48.87406500;9.59633600;2022-11-21T14:29:52;2.83;;;0.93;;
1999;SDS011;1001;48.87406500;9.59633600;2022-11-21T14:32:24;2.70;;;1.00;;
1999;SDS011;1001;48.87406500;9.59633600;2022-11-21T14:35:06;1.70;;;1.10;;
1999;SDS011;1001;48.87406500;9.59633600;2022-11-21T14:37:35;3.37;;;1.30;;
1999;SDS011;1001;48.87406500;9.59633600;2022-11-21T14:40:11;3.23;;;1.20;;
1999;SDS011;1001;48.87406500;9.59633600;2022-11-21T14:42:40;3.30;;;1.37;;
1999;SDS011;1001;48.87406500;9.59633600;2022-11-21T14:45:14;3.63;;;1.97;;
1999;SDS011;1001;48.87406500;9.59633600;2022-11-21T14:47:47;3.63;;;1.50;;
1999;SDS011;1001;48.87406500;9.59633600;2022-11-21T14:50:21;3.30;;;1.27;;
1999;SDS011;1001;48.87406500;9.59633600;2022-11-21T14:52:51;2.83;;;1.33;;
1999;SDS011;1001;48.87406500;9.59633600;2022-11-21T14:55:22;4.33;;;1.70;;
1999;SDS011;1001;48.87406500;9.59633600;2022-11-21T14:57:52;2.63;;;1.53;;
1999;SDS011;1001;48.87406500;9.59633600;2022-11-21T15:00:20;3.87;;;2.03;;
1999;SDS011;1001;48.87406500;9.59633600;2022-11-21T15:02:52;7.30;;;2.30;;
1999;SDS011;1001;48.87406500;9.59633600;2022-11-21T15:05:20;4.10;;;1.77;;
1999;SDS011;1001;48.87406500;9.59633600;2022-11-21T15:07:47;4.03;;;2.27;;
1999;SDS011;1001;48.87406500;9.59633600;2022-11-21T15:10:17;12.17;;;2.80;;
1999;SDS011;1001;48.87406500;9.59633600;2022-11-21T15:12:49;5.90;;;2.37;;
1999;SDS011;1001;48.87406500;9.59633600;2022-11-21T15:15:27;7.03;;;3.70;;
1999;SDS011;1001;48.87406500;9.59633600;2022-11-21T15:17:57;9.57;;;2.97;;
1999;SDS011;1001;48.87406500;9.59633600;2022-11-21T15:20:26;6.13;;;3.17;;
1999;SDS011;1001;48.87406500;9.59633600;2022-11-21T15:22:54;7.23;;;3.20;;
1999;SDS011;1001;48.87406500;9.59633600;2022-11-21T15:25:24;6.03;;;3.50;;
1999;SDS011;1001;48.87406500;9.59633600;2022-11-21T15:28:05;7.10;;;3.20;;
1999;SDS011;1001;48.87406500;9.59633600;2022-11-21T15:30:34;11.60;;;2.80;;
1999;SDS011;1001;48.87406500;9.59633600;2022-11-21T15:33:02;4.53;;;3.93;;
1999;SDS011;1001;48.87406500;9.59633600;2022-11-21T15:35:39;5.93;;;3.10;;
1999;SDS011;1001;48.87406500;9.59633600;2022-11-21T15:41:00;7.03;;;3.47;;
1999;SDS011;1001;48.87406500;9.59633600;2022-11-21T15:43:35;5.10;;;3.37;;
1999;SDS011;1001;48.87406500;9.59633600;2022-11-21T15:46:13;7.37;;;3.10;;
1999;SDS011;1001;48.87406500;9.59633600;2022-11-21T15:48:45;2.90;;;1.60;;
1999;SDS011;1001;48.87406500;9.59633600;2022-11-21T15:51:13;5.10;;;2.33;;
1999;SDS011;1001;48.87406500;9.59633600;2022-11-21T15:53:41;8.67;;;3.37;;
1999;SDS011;1001;48.87406500;9.59633600;2022-11-21T15:56:10;5.33;;;2.80;;
1999;SDS011;1001;48.87406500;9.59633600;2022-11-21T15:58:39;5.93;;;2.43;;
1999;SDS011;1001;48.87406500;9.59633600;2022-11-21T16:01:09;6.17;;;2.60;;
1999;SDS011;1001;48.87406500;9.59633600;2022-11-21T16:03:41;4.57;;;2.83;;
1999;SDS011;1001;48.87406500;9.59633600;2022-11-21T16:06:08;6.93;;;2.20;;
1999;SDS011;1001;48.87406500;9.59633600;2022-11-21T16:08:36;6.90;;;2.47;;
1999;SDS011;1001;48.87406500;9.59633600;2022-11-21T16:11:02;4.30;;;2.53;;
1999;SDS011;1001;48.87406500;9.59633600;2022-11-21T16:13:30;4.77;;;2.90;;
1999;SDS011;1001;48.87406500;9.59633600;2022-11-21T16:15:58;3.93;;;2.60;;
1999;SDS011;1001;48.87406500;9.59633600;2022-11-21T16:18:26;4.97;;;3.20;;
1999;SDS011;1001;48.87406500;9.59633600;2022-11-21T16:21:02;11.60;;;3.63;;
1999;SDS011;1001;48.87406500;9.59633600;2022-11-21T16:23:31;6.13;;;3.27;;
1999;SDS011;1001;48.87406500;9.59633600;2022-11-21T16:25:58;4.90;;;3.07;;
1999;SDS011;1001;48.87406500;9.59633600;2022-11-21T16:28:24;3.43;;;3.07;;
1999;SDS011;1001;48.87406500;9.59633600;2022-11-21T16:30:52;3.93;;;3.37;;
1999;SDS011;1001;48.87406500;9.59633600;2022-11-21T16:33:19;4.50;;;2.70;;
1999;SDS011;1001;48.87406500;9.59633600;2022-11-21T16:35:46;11.07;;;3.53;;
1999;SDS011;1001;48.87406500;9.59633600;2022-11-21T16:38:13;3.90;;;3.20;;
1999;SDS011;1001;48.87406500;9.59633600;2022-11-21T16:40:40;8.90;;;3.50;;
1999;SDS011;1001;48.87406500;9.59633600;2022-11-21T16:43:07;5.20;;;2.90;;
1999;SDS011;1001;48.87406500;9.59633600;2022-11-21T16:45:35;11.57;;;2.90;;
1999;SDS011;1001;48.87406500;9.59633600;2022-11-21T16:48:04;8.37;;;3.30;;
1999;SDS011;1001;48.87406500;9.59633600;2022-11-21T16:50:31;12.87;;;4.20;;
1999;SDS011;1001;48.87406500;9.59633600;2022-11-21T16:53:00;4.43;;;3.00;;
1999;SDS011;1001;48.87406500;9.59633600;2022-11-21T16:55:27;6.10;;;3.00;;
1999;SDS011;1001;48.87406500;9.59633600;2022-11-21T16:57:54;6.80;;;3.30;;
1999;SDS011;1001;48.87406500;9.59633600;2022-11-21T17:00:23;7.47;;;2.83;;
1999;SDS011;1001;48.87406500;9.59633600;2022-11-21T17:02:50;7.97;;;3.73;;
1999;SDS011;1001;48.87406500;9.59633600;2022-11-21T17:05:19;6.73;;;3.47;;
1999;SDS011;1001;48.87406500;9.59633600;2022-11-21T17:07:46;7.23;;;3.17;;
1999;SDS011;1001;48.87406500;9.59633600;2022-11-21T17:10:13;4.67;;;2.90;;
1999;SDS011;1001;48.87406500;9.59633600;2022-11-21T17:12:41;6.00;;;2.80;;
1999;SDS011;1001;48.87406500;9.59633600;2022-11-21T17:15:10;4.00;;;3.13;;
1999;SDS011;1001;48.87406500;9.59633600;2022-11-21T17:17:38;2.87;;;1.93;;
1999;SDS011;1001;48.87406500;9.59633600;2022-11-21T17:20:06;4.73;;;2.30;;
1999;SDS011;1001;48.87406500;9.59633600;2022-11-21T17:22:35;6.10;;;2.80;;
1999;SDS011;1001;48.87406500;9.59633600;2022-11-21T17:25:05;7.87;;;3.57;;
1999;SDS011;1001;48.87406500;9.59633600;2022-11-21T17:27:35;6.23;;;2.73;;
1999;SDS011;1001;48.87406500;9.59633600;2022-11-21T17:30:01;5.90;;;2.97;;